Flight Track Log - Related Links

Times and Time Zones

All times are in EDT time to prevent confusion due to time zone crossing. See the ANE8734 flight status page for this flight to view local times or setup timezone preferences in your user account.

Time Position Orientation Groundspeed Altitude Reporting Facility
EDT Latitude Longitude Course Direction KTS MPH feet Rate Location/Type
Tue 01:57:00 AM 39.6789 1.6050 83° East  Level Estimated
Tue 01:58:00 AM 39.6874 1.7096 84° East  Level Estimated
Tue 01:59:00 AM 39.6958 1.8143 84° East  Level Estimated
Tue 02:00:00 AM 39.7042 1.9190 84° East  Level Estimated
Tue 02:01:00 AM 39.7124 2.0237 84° East  Level Estimated
Tue 02:02:00 AM 39.7205 2.1284 84° East  Level Estimated
Tue 02:03:00 AM 39.7285 2.2331 84° East  Level Estimated
Tue 02:04:00 AM 39.7365 2.3379 84° East  Level Estimated
Tue 02:05:00 AM 39.7443 2.4427 84° East  Level Estimated
Tue 02:06:00 AM 39.7520 2.5475 84° East  Level Estimated
Tue 02:07:00 AM 39.7597 2.6524 85° East  Level Estimated
Tue 02:08:00 AM 39.7673 2.7572 85° East  Level Estimated
Tue 02:09:00 AM 39.7747 2.8621 85° East  Level Estimated
Tue 02:10:00 AM 39.7821 2.9670 85° East  Level Estimated
Tue 02:11:00 AM 39.7893 3.0720 85° East  Level Estimated
Tue 02:12:00 AM 39.7965 3.1769 85° East  Level Estimated
Tue 02:13:00 AM 39.8036 3.2819 85° East  Level Estimated
Tue 02:14:00 AM 39.8106 3.3869 85° East  Level Estimated
Tue 02:15:00 AM 39.8175 3.4919 85° East  Level Estimated
Tue 02:16:00 AM 39.8243 3.5970 85° East  Level Estimated
Tue 02:17:00 AM 39.8310 3.7020 85° East  Level Estimated
Tue 02:18:00 AM 39.8376 3.8071 85° East  Level Estimated
Tue 02:19:00 AM 39.8441 3.9122 85° East  Level Estimated
Tue 02:20:00 AM 39.8506 4.0173 85° East  Level Estimated
Tue 02:21:00 AM 39.8569 4.1225 85° East  Level Estimated
Tue 02:22:00 AM 39.8626 4.2186 86° East  Level Estimated
Tue 02:23:00 AM 39.8626 4.2186 North  Level Estimated
Tue 02:24:00 AM 39.8626 4.2186 North  Level Estimated
Tue 02:25:00 AM 39.8626 4.2186 North  Level Estimated
Tue 02:26:00 AM 39.8626 4.2186 North  Level Estimated
Tue 02:27:00 AM 39.8626 4.2186 North  Level Estimated
Tue 02:28:00 AM 39.8626 4.2186 North  Level Estimated
Tue 02:29:00 AM 39.8626 4.2186 North  Level Estimated
Tue 02:30:00 AM 39.8626 4.2186 North  Level Estimated
Tue 02:31:00 AM 39.8626 4.2186 North  Level Estimated
Tue 02:32:00 AM 39.8626 4.2186 North  Level Estimated
Tue 02:33:00 AM 39.8626 4.2186 North  Level Estimated

Login

Don't have an account? Register now (free) for customized features, flight alerts, and more!